createdAt,value
2022-12-11T00:00:10.294Z,-0.08
2022-12-11T00:03:15.820Z,-0.11
2022-12-11T00:06:21.102Z,-0.13
2022-12-11T00:09:23.243Z,-0.15
2022-12-11T00:12:25.383Z,-0.16
2022-12-11T00:15:28.177Z,-0.18
2022-12-11T00:18:30.332Z,-0.19
2022-12-11T00:21:32.841Z,-0.20
2022-12-11T00:24:34.902Z,-0.20
2022-12-11T00:27:36.981Z,-0.20
2022-12-11T00:30:41.259Z,-0.22
2022-12-11T00:33:46.332Z,-0.21
2022-12-11T00:36:48.348Z,-0.23
2022-12-11T00:39:50.335Z,-0.24
2022-12-11T00:42:52.291Z,-0.25
2022-12-11T00:45:54.343Z,-0.25
2022-12-11T00:48:56.485Z,-0.24
2022-12-11T00:51:58.542Z,-0.24
2022-12-11T00:55:00.542Z,-0.24
2022-12-11T00:58:02.496Z,-0.25
2022-12-11T01:01:13.938Z,-0.25
2022-12-11T01:04:15.918Z,-0.26
2022-12-11T01:07:19.072Z,-0.27
2022-12-11T01:10:24.253Z,-0.30
2022-12-11T01:13:26.340Z,-0.31
2022-12-11T01:16:28.375Z,-0.35
2022-12-11T01:19:31.649Z,-0.38
2022-12-11T01:22:33.668Z,-0.44
2022-12-11T01:25:38.362Z,-0.47
2022-12-11T01:28:41.581Z,-0.47
2022-12-11T01:31:43.568Z,-0.50
2022-12-11T01:34:45.548Z,-0.51
2022-12-11T01:37:47.855Z,-0.54
2022-12-11T01:40:51.450Z,-0.54
2022-12-11T01:43:59.300Z,-0.56
2022-12-11T01:47:01.335Z,-0.57
2022-12-11T01:50:03.568Z,-0.58
2022-12-11T01:53:09.077Z,-0.58
2022-12-11T01:56:11.435Z,-0.60
2022-12-11T01:59:18.054Z,-0.59
2022-12-11T02:02:24.741Z,-0.59
2022-12-11T02:05:26.838Z,-0.64
2022-12-11T02:08:29.906Z,-0.68
2022-12-11T02:11:42.844Z,-0.67
2022-12-11T02:15:05.668Z,-0.65
2022-12-11T02:18:25.611Z,-0.66
2022-12-11T02:21:44.105Z,-0.65
2022-12-11T02:25:19.212Z,-0.67
2022-12-11T02:28:31.427Z,-0.69
2022-12-11T02:31:49.318Z,-0.70
2022-12-11T02:35:20.775Z,-0.70
2022-12-11T02:38:30.336Z,-0.71
2022-12-11T02:41:34.024Z,-0.70
2022-12-11T02:44:37.257Z,-0.72
2022-12-11T02:47:40.529Z,-0.72
2022-12-11T02:50:54.315Z,-0.72
2022-12-11T02:54:04.395Z,-0.72
2022-12-11T02:57:17.077Z,-0.68
2022-12-11T03:00:19.656Z,-0.66
2022-12-11T03:03:22.280Z,-0.68
2022-12-11T03:06:29.850Z,-0.68
2022-12-11T03:09:32.623Z,-0.72
2022-12-11T03:12:41.136Z,-0.76
2022-12-11T03:16:12.489Z,-0.76
2022-12-11T03:19:45.816Z,-0.71
2022-12-11T03:23:02.929Z,-0.70
2022-12-11T03:26:09.057Z,-0.70
2022-12-11T03:29:31.989Z,-0.66
2022-12-11T03:32:45.106Z,-0.66
2022-12-11T03:35:56.275Z,-0.64
2022-12-11T03:39:02.311Z,-0.68
2022-12-11T03:42:09.050Z,-0.64
2022-12-11T03:45:13.814Z,-0.60
2022-12-11T03:48:18.973Z,-0.58
2022-12-11T03:51:24.469Z,-0.61
2022-12-11T03:54:27.774Z,-0.57
2022-12-11T03:57:33.928Z,-0.59
2022-12-11T04:00:36.404Z,-0.66
2022-12-11T04:03:39.251Z,-0.65
2022-12-11T04:06:41.269Z,-0.65
2022-12-11T04:09:43.286Z,-0.68
2022-12-11T04:12:45.282Z,-0.70
2022-12-11T04:15:47.325Z,-0.72
2022-12-11T04:19:08.040Z,-0.78
2022-12-11T04:22:27.083Z,-0.81
2022-12-11T04:25:29.138Z,-0.87
2022-12-11T04:28:31.176Z,-0.94
2022-12-11T04:31:33.290Z,-0.96
2022-12-11T04:34:35.256Z,-1.00
2022-12-11T04:37:37.965Z,-1.05
2022-12-11T04:40:40.039Z,-1.10
2022-12-11T04:43:45.447Z,-1.14
2022-12-11T04:46:47.492Z,-1.16
2022-12-11T04:49:49.602Z,-1.15
2022-12-11T04:52:55.201Z,-1.16
2022-12-11T04:55:57.621Z,-1.20
2022-12-11T04:58:59.613Z,-1.19
2022-12-11T05:02:01.740Z,-1.24
2022-12-11T05:05:06.155Z,-1.26
2022-12-11T05:08:08.657Z,-1.28
2022-12-11T05:11:13.868Z,-1.28
2022-12-11T05:14:15.986Z,-1.32
2022-12-11T05:17:18.010Z,-1.31
2022-12-11T05:20:19.930Z,-1.30
2022-12-11T05:23:21.921Z,-1.27
2022-12-11T05:26:24.008Z,-1.29
2022-12-11T05:29:25.948Z,-1.27
2022-12-11T05:32:28.649Z,-1.28
2022-12-11T05:35:30.651Z,-1.26
2022-12-11T05:38:32.763Z,-1.26
2022-12-11T05:41:34.691Z,-1.25
2022-12-11T05:44:36.709Z,-1.25
2022-12-11T05:47:38.714Z,-1.20
2022-12-11T05:50:40.675Z,-1.23
2022-12-11T05:53:44.282Z,-1.24
2022-12-11T05:56:46.315Z,-1.25
2022-12-11T05:59:48.284Z,-1.25
2022-12-11T06:02:50.354Z,-1.25
2022-12-11T06:05:52.543Z,-1.26
2022-12-11T06:08:56.801Z,-1.24
2022-12-11T06:11:58.847Z,-1.23
2022-12-11T06:15:00.804Z,-1.21
2022-12-11T06:18:02.892Z,-1.21
2022-12-11T06:21:27.783Z,-1.19
2022-12-11T06:24:29.803Z,-1.16
2022-12-11T06:27:31.792Z,-1.09
2022-12-11T06:30:37.548Z,-1.10
2022-12-11T06:33:41.454Z,-1.07
2022-12-11T06:36:43.445Z,-1.06
2022-12-11T06:39:45.573Z,-1.05
2022-12-11T06:42:47.571Z,-1.04
2022-12-11T06:45:49.611Z,-1.02
2022-12-11T06:48:51.545Z,-1.00
2022-12-11T06:51:53.668Z,-1.03
2022-12-11T06:54:56.001Z,-1.04
2022-12-11T06:57:58.013Z,-1.05
2022-12-11T07:01:00.106Z,-1.08
2022-12-11T07:04:02.243Z,-1.08
2022-12-11T07:07:04.329Z,-1.08
2022-12-11T07:10:08.604Z,-1.06
2022-12-11T07:13:11.003Z,-1.02
2022-12-11T07:16:14.960Z,-1.01
2022-12-11T07:19:17.094Z,-1.01
2022-12-11T07:22:19.136Z,-0.99
2022-12-11T07:25:21.105Z,-0.97
2022-12-11T07:28:23.291Z,-0.99
2022-12-11T07:31:27.140Z,-0.95
2022-12-11T07:34:29.316Z,-0.93
2022-12-11T07:37:31.329Z,-0.91
2022-12-11T07:40:34.067Z,-0.90
2022-12-11T07:43:37.859Z,-0.87
2022-12-11T07:46:40.642Z,-0.84
2022-12-11T07:49:42.684Z,-0.85
2022-12-11T07:52:44.773Z,-0.81
2022-12-11T07:55:46.779Z,-0.76
2022-12-11T07:58:48.873Z,-0.78
2022-12-11T08:01:50.848Z,-0.76
2022-12-11T08:04:52.833Z,-0.74
2022-12-11T08:07:54.838Z,-0.75
2022-12-11T08:10:56.961Z,-0.76
2022-12-11T08:13:59.892Z,-0.71
2022-12-11T08:17:02.690Z,-0.72
2022-12-11T08:20:05.606Z,-0.71
2022-12-11T08:23:07.591Z,-0.67
2022-12-11T08:26:17.055Z,-0.67
2022-12-11T08:29:18.937Z,-0.64
2022-12-11T08:32:20.878Z,-0.63
2022-12-11T08:35:25.834Z,-0.55
2022-12-11T08:38:27.810Z,-0.35
2022-12-11T08:41:30.937Z,-0.30
2022-12-11T08:44:32.977Z,-0.29
2022-12-11T08:47:35.013Z,-0.26
2022-12-11T08:50:37.790Z,-0.24
2022-12-11T08:53:40.225Z,-0.19
2022-12-11T08:56:42.170Z,-0.16
2022-12-11T08:59:44.151Z,-0.16
2022-12-11T09:02:46.274Z,-0.10
2022-12-11T09:05:48.369Z,-0.07
2022-12-11T09:08:53.168Z,-0.01
2022-12-11T09:11:55.765Z,0.11
2022-12-11T09:14:57.705Z,0.11
2022-12-11T09:17:59.681Z,0.07
2022-12-11T09:21:10.230Z,-0.07
2022-12-11T09:24:13.685Z,-0.04
2022-12-11T09:27:15.715Z,0.04
2022-12-11T09:30:17.789Z,0.14
2022-12-11T09:33:19.807Z,-0.07
2022-12-11T09:36:22.444Z,-0.24
2022-12-11T09:39:24.541Z,-0.38
2022-12-11T09:42:51.325Z,-0.39
2022-12-11T09:45:55.342Z,-0.36
2022-12-11T09:48:57.810Z,-0.38
2022-12-11T09:51:59.743Z,-0.35
2022-12-11T09:55:10.209Z,-0.30
2022-12-11T09:58:19.129Z,-0.07
2022-12-11T10:01:39.162Z,-0.14
2022-12-11T10:04:43.730Z,-0.04
2022-12-11T10:07:45.691Z,-0.01
2022-12-11T10:11:06.123Z,0.12
2022-12-11T10:14:17.509Z,0.17
2022-12-11T10:17:23.597Z,0.33
2022-12-11T10:20:39.577Z,0.20
2022-12-11T10:23:51.415Z,0.13
2022-12-11T10:26:58.517Z,0.04
2022-12-11T10:30:03.005Z,-0.10
2022-12-11T10:33:07.865Z,-0.21
2022-12-11T10:36:10.971Z,-0.27
2022-12-11T10:39:19.010Z,-0.27
2022-12-11T10:42:22.988Z,-0.29
2022-12-11T10:45:25.169Z,-0.28
2022-12-11T10:48:27.274Z,-0.28
2022-12-11T10:51:32.039Z,-0.28
2022-12-11T10:54:37.034Z,-0.24
2022-12-11T10:57:39.765Z,-0.22
2022-12-11T11:00:42.635Z,-0.16
2022-12-11T11:04:07.502Z,-0.31
2022-12-11T11:07:34.670Z,-0.30
2022-12-11T11:10:36.847Z,-0.36
2022-12-11T11:13:39.024Z,-0.33
2022-12-11T11:16:43.274Z,-0.33
2022-12-11T11:19:48.450Z,-0.29
2022-12-11T11:23:00.267Z,-0.31
2022-12-11T11:26:08.474Z,-0.24
2022-12-11T11:29:29.391Z,-0.24
2022-12-11T11:32:40.048Z,-0.20
2022-12-11T11:35:56.098Z,-0.28
2022-12-11T11:39:20.308Z,-0.29
2022-12-11T11:42:43.933Z,-0.23
2022-12-11T11:45:57.865Z,-0.31
2022-12-11T11:49:20.556Z,-0.35
2022-12-11T11:52:30.947Z,-0.45
2022-12-11T11:55:52.262Z,-0.49
2022-12-11T11:59:06.313Z,-0.40
2022-12-11T12:02:16.322Z,-0.22
2022-12-11T12:05:25.834Z,-0.16
2022-12-11T12:08:33.571Z,-0.17
2022-12-11T12:11:58.591Z,-0.15
2022-12-11T12:15:20.256Z,-0.14
2022-12-11T12:18:50.232Z,-0.15
2022-12-11T12:21:53.227Z,-0.27
2022-12-11T12:25:14.864Z,-0.35
2022-12-11T12:28:28.605Z,-0.44
2022-12-11T12:31:56.691Z,-0.51
2022-12-11T12:35:11.993Z,-0.54
2022-12-11T12:38:50.367Z,-0.55
2022-12-11T12:42:07.528Z,-0.56
2022-12-11T12:45:13.813Z,-0.57
2022-12-11T12:48:16.406Z,-0.68
2022-12-11T12:51:19.163Z,-0.75
2022-12-11T12:54:22.308Z,-0.82
2022-12-11T12:57:24.738Z,-0.85
2022-12-11T13:00:36.573Z,-0.90
2022-12-11T13:04:02.267Z,-0.91
2022-12-11T13:07:20.385Z,-0.88
2022-12-11T13:10:26.570Z,-0.97
2022-12-11T13:13:40.959Z,-0.97
2022-12-11T13:16:48.203Z,-1.02
2022-12-11T13:19:57.714Z,-1.03
2022-12-11T13:23:29.352Z,-1.06
2022-12-11T13:26:33.184Z,-1.01
2022-12-11T13:29:36.958Z,-0.97
2022-12-11T13:32:39.416Z,-0.99
2022-12-11T13:35:41.881Z,-0.97
2022-12-11T13:38:52.092Z,-1.01
2022-12-11T13:42:02.159Z,-1.06
2022-12-11T13:45:05.979Z,-1.09
2022-12-11T13:48:19.973Z,-1.14
2022-12-11T13:51:24.890Z,-1.26
2022-12-11T13:54:29.134Z,-1.31
2022-12-11T13:57:31.174Z,-1.38
2022-12-11T14:00:33.608Z,-1.45
2022-12-11T14:03:36.330Z,-1.48
2022-12-11T14:06:40.155Z,-1.56
2022-12-11T14:09:46.201Z,-1.61
2022-12-11T14:12:54.104Z,-1.64
2022-12-11T14:15:56.262Z,-1.74
2022-12-11T14:19:10.372Z,-1.78
2022-12-11T14:22:24.699Z,-1.77
2022-12-11T14:25:28.452Z,-1.81
2022-12-11T14:28:38.218Z,-1.86
2022-12-11T14:31:44.607Z,-1.89
2022-12-11T14:34:49.250Z,-1.93
2022-12-11T14:37:53.065Z,-1.96
2022-12-11T14:41:03.560Z,-1.96
2022-12-11T14:44:12.823Z,-1.95
2022-12-11T14:47:21.167Z,-1.95
2022-12-11T14:50:28.865Z,-1.92
2022-12-11T14:53:38.106Z,-1.93
2022-12-11T14:56:40.266Z,-1.99
2022-12-11T14:59:47.261Z,-2.00
2022-12-11T15:03:01.564Z,-1.99
2022-12-11T15:06:23.799Z,-2.01
2022-12-11T15:09:37.722Z,-2.03
2022-12-11T15:12:45.401Z,-2.05
2022-12-11T15:15:48.037Z,-2.06
2022-12-11T15:18:52.505Z,-2.06
2022-12-11T15:21:55.587Z,-2.06
2022-12-11T15:25:00.436Z,-2.05
2022-12-11T15:28:02.489Z,-2.07
2022-12-11T15:31:06.058Z,-2.08
2022-12-11T15:34:23.234Z,-2.10
2022-12-11T15:37:36.774Z,-2.12
2022-12-11T15:40:39.711Z,-2.15
2022-12-11T15:43:42.630Z,-2.19
2022-12-11T15:46:45.048Z,-2.19
2022-12-11T15:49:47.574Z,-2.22
2022-12-11T15:52:51.810Z,-2.25
2022-12-11T15:55:54.451Z,-2.27
2022-12-11T15:59:04.825Z,-2.25
2022-12-11T16:02:13.390Z,-2.25
2022-12-11T16:05:15.841Z,-2.27
2022-12-11T16:08:20.437Z,-2.28
2022-12-11T16:11:22.478Z,-2.31
2022-12-11T16:14:24.592Z,-2.37
2022-12-11T16:17:27.074Z,-2.37
2022-12-11T16:20:31.130Z,-2.32
2022-12-11T16:23:33.331Z,-2.32
2022-12-11T16:26:35.700Z,-2.34
2022-12-11T16:29:40.115Z,-2.35
2022-12-11T16:32:43.095Z,-2.35
2022-12-11T16:35:50.358Z,-2.31
2022-12-11T16:38:54.220Z,-2.30
2022-12-11T16:41:57.054Z,-2.30
2022-12-11T16:45:06.763Z,-2.32
2022-12-11T16:48:09.700Z,-2.30
2022-12-11T16:51:11.974Z,-2.30
2022-12-11T16:54:14.105Z,-2.29
2022-12-11T16:57:16.802Z,-2.30
2022-12-11T17:00:19.071Z,-2.30
2022-12-11T17:03:21.117Z,-2.28
2022-12-11T17:06:23.624Z,-2.27
2022-12-11T17:09:26.337Z,-2.33
2022-12-11T17:12:32.334Z,-2.30
2022-12-11T17:15:40.167Z,-2.26
2022-12-11T17:18:43.601Z,-2.30
2022-12-11T17:21:51.649Z,-2.29
2022-12-11T17:24:54.405Z,-2.30
2022-12-11T17:27:57.836Z,-2.32
2022-12-11T17:31:05.498Z,-2.35
2022-12-11T17:34:08.731Z,-2.35
2022-12-11T17:37:11.567Z,-2.35
2022-12-11T17:40:19.302Z,-2.33
2022-12-11T17:43:22.368Z,-2.34
2022-12-11T17:46:25.082Z,-2.36
2022-12-11T17:49:28.241Z,-2.38
2022-12-11T17:52:35.008Z,-2.39
2022-12-11T17:55:44.308Z,-2.41
2022-12-11T17:58:46.911Z,-2.38
2022-12-11T18:01:49.627Z,-2.35
2022-12-11T18:04:52.647Z,-2.35
2022-12-11T18:07:57.878Z,-2.34
2022-12-11T18:11:16.915Z,-2.34
2022-12-11T18:14:19.691Z,-2.39
2022-12-11T18:17:22.121Z,-2.42
2022-12-11T18:20:25.403Z,-2.41
2022-12-11T18:23:28.672Z,-2.42
2022-12-11T18:26:35.231Z,-2.44
2022-12-11T18:29:37.874Z,-2.43
2022-12-11T18:32:46.935Z,-2.44
2022-12-11T18:35:51.963Z,-2.44
2022-12-11T18:38:54.455Z,-2.44
2022-12-11T18:42:30.649Z,-2.44
2022-12-11T18:45:20.381Z,-2.41
2022-12-11T18:48:23.901Z,-2.39
2022-12-11T18:51:27.231Z,-2.43
2022-12-11T18:54:30.160Z,-2.42
2022-12-11T18:57:33.195Z,-2.40
2022-12-11T19:00:39.868Z,-2.38
2022-12-11T19:03:43.164Z,-2.40
2022-12-11T19:06:46.604Z,-2.41
2022-12-11T19:09:49.760Z,-2.40
2022-12-11T19:12:52.810Z,-2.40
2022-12-11T19:15:57.255Z,-2.40
2022-12-11T19:19:01.425Z,-2.40
2022-12-11T19:22:06.200Z,-2.40
2022-12-11T19:25:09.624Z,-2.39
2022-12-11T19:28:13.541Z,-2.37
2022-12-11T19:31:19.656Z,-2.39
2022-12-11T19:34:26.875Z,-2.39
2022-12-11T19:37:29.541Z,-2.43
2022-12-11T19:40:32.664Z,-2.44
2022-12-11T19:43:38.111Z,-2.46
2022-12-11T19:46:41.518Z,-2.47
2022-12-11T19:49:44.921Z,-2.48
2022-12-11T19:52:48.841Z,-2.51
2022-12-11T19:55:54.670Z,-2.47
2022-12-11T19:58:58.014Z,-2.48
2022-12-11T20:02:01.255Z,-2.48
2022-12-11T20:05:04.923Z,-2.48
2022-12-11T20:08:42.294Z,-2.46
2022-12-11T20:11:33.186Z,-2.46
2022-12-11T20:14:37.232Z,-2.45
2022-12-11T20:17:44.512Z,-2.47
2022-12-11T20:20:47.815Z,-2.53
2022-12-11T20:23:52.219Z,-2.52
2022-12-11T20:26:57.711Z,-2.52
2022-12-11T20:30:00.689Z,-2.50
2022-12-11T20:33:07.090Z,-2.50
2022-12-11T20:36:14.277Z,-2.49
2022-12-11T20:39:17.411Z,-2.49
2022-12-11T20:42:20.848Z,-2.49
2022-12-11T20:45:23.703Z,-2.49
2022-12-11T20:48:26.859Z,-2.51
2022-12-11T20:51:33.087Z,-2.53
2022-12-11T20:54:35.487Z,-2.54
2022-12-11T20:57:44.770Z,-2.52
2022-12-11T21:00:48.817Z,-2.54
2022-12-11T21:03:55.083Z,-2.54
2022-12-11T21:06:58.586Z,-2.55
2022-12-11T21:10:00.762Z,-2.55
2022-12-11T21:13:03.191Z,-2.55
2022-12-11T21:16:08.136Z,-2.53
2022-12-11T21:19:16.649Z,-2.54
2022-12-11T21:22:19.651Z,-2.54
2022-12-11T21:25:21.806Z,-2.55
2022-12-11T21:28:24.101Z,-2.55
2022-12-11T21:31:27.479Z,-2.55
2022-12-11T21:34:29.878Z,-2.54
2022-12-11T21:37:32.369Z,-2.56
2022-12-11T21:40:34.825Z,-2.56
2022-12-11T21:43:42.754Z,-2.55
2022-12-11T21:46:59.628Z,-2.57
2022-12-11T21:50:01.715Z,-2.57
2022-12-11T21:53:04.014Z,-2.60
2022-12-11T21:56:07.958Z,-2.61
2022-12-11T21:59:10.391Z,-2.64
2022-12-11T22:02:12.443Z,-2.65
2022-12-11T22:05:14.685Z,-2.65
2022-12-11T22:08:17.170Z,-2.66
2022-12-11T22:11:21.373Z,-2.68
2022-12-11T22:14:23.428Z,-2.70
2022-12-11T22:17:25.400Z,-2.70
2022-12-11T22:20:27.440Z,-2.73
2022-12-11T22:23:29.497Z,-2.72
2022-12-11T22:26:31.495Z,-2.73
2022-12-11T22:29:33.580Z,-2.73
2022-12-11T22:32:35.624Z,-2.74
2022-12-11T22:35:38.157Z,-2.74
2022-12-11T22:38:40.294Z,-2.76
2022-12-11T22:41:42.727Z,-2.78
2022-12-11T22:44:44.686Z,-2.75
2022-12-11T22:47:46.760Z,-2.76
2022-12-11T22:50:48.741Z,-2.76
2022-12-11T22:53:51.326Z,-2.75
2022-12-11T22:56:53.358Z,-2.73
2022-12-11T22:59:57.104Z,-2.72
2022-12-11T23:02:59.193Z,-2.75
2022-12-11T23:06:05.409Z,-2.75
2022-12-11T23:09:07.721Z,-2.80
2022-12-11T23:12:09.773Z,-2.81
2022-12-11T23:15:12.399Z,-2.82
2022-12-11T23:18:14.864Z,-2.86
2022-12-11T23:21:17.141Z,-2.87
2022-12-11T23:24:19.229Z,-2.89
2022-12-11T23:27:21.472Z,-2.94
2022-12-11T23:30:24.149Z,-2.97
2022-12-11T23:33:26.178Z,-3.00
2022-12-11T23:36:29.296Z,-3.01
2022-12-11T23:39:31.304Z,-3.01
2022-12-11T23:42:33.850Z,-3.04
2022-12-11T23:45:35.881Z,-3.04
2022-12-11T23:48:37.987Z,-3.07
2022-12-11T23:51:40.252Z,-3.08
2022-12-11T23:54:42.297Z,-3.11
2022-12-11T23:57:44.270Z,-3.09
